sensor_id;sensor_type;location;lat;lon;timestamp;pressure;altitude;pressure_sealevel;temperature;humidity
6389;BME280;3227;42.654;23.360;2023-01-23T00:01:11;94849.13;;;10.66;85.25
6389;BME280;3227;42.654;23.360;2023-01-23T00:03:38;94812.31;;;10.51;84.67
6389;BME280;3227;42.654;23.360;2023-01-23T00:06:07;94802.91;;;10.45;84.81
6389;BME280;3227;42.654;23.360;2023-01-23T00:08:36;94844.00;;;10.70;84.66
6389;BME280;3227;42.654;23.360;2023-01-23T00:11:04;94851.66;;;10.65;84.02
6389;BME280;3227;42.654;23.360;2023-01-23T00:13:31;94861.03;;;10.58;84.73
6389;BME280;3227;42.654;23.360;2023-01-23T00:16:02;94863.63;;;10.61;84.88
6389;BME280;3227;42.654;23.360;2023-01-23T00:18:29;94868.72;;;10.54;85.71
6389;BME280;3227;42.654;23.360;2023-01-23T00:20:56;94865.28;;;10.53;85.87
6389;BME280;3227;42.654;23.360;2023-01-23T00:23:23;94849.00;;;10.42;85.20
6389;BME280;3227;42.654;23.360;2023-01-23T00:25:49;94853.25;;;10.40;85.95
6389;BME280;3227;42.654;23.360;2023-01-23T00:28:16;94852.38;;;10.35;86.68
6389;BME280;3227;42.654;23.360;2023-01-23T00:30:43;94861.72;;;10.28;87.36
6389;BME280;3227;42.654;23.360;2023-01-23T00:33:11;94846.31;;;10.22;87.56
6389;BME280;3227;42.654;23.360;2023-01-23T00:35:38;94806.91;;;10.02;87.16
6389;BME280;3227;42.654;23.360;2023-01-23T00:38:05;94860.75;;;10.16;87.07
6389;BME280;3227;42.654;23.360;2023-01-23T00:40:34;94866.84;;;10.27;87.36
6389;BME280;3227;42.654;23.360;2023-01-23T00:43:01;94861.72;;;10.30;87.14
6389;BME280;3227;42.654;23.360;2023-01-23T00:45:28;94867.75;;;10.35;87.14
6389;BME280;3227;42.654;23.360;2023-01-23T00:47:54;94863.53;;;10.43;86.64
6389;BME280;3227;42.654;23.360;2023-01-23T00:50:23;94867.78;;;10.41;86.64
6389;BME280;3227;42.654;23.360;2023-01-23T00:52:49;94867.75;;;10.37;86.15
6389;BME280;3227;42.654;23.360;2023-01-23T00:55:16;94877.19;;;10.44;86.45
6389;BME280;3227;42.654;23.360;2023-01-23T00:57:43;94866.94;;;10.48;86.41
6389;BME280;3227;42.654;23.360;2023-01-23T01:00:10;94866.16;;;10.57;86.33
6389;BME280;3227;42.654;23.360;2023-01-23T01:02:37;94863.53;;;10.48;85.97
6389;BME280;3227;42.654;23.360;2023-01-23T01:05:05;94866.03;;;10.34;85.98
6389;BME280;3227;42.654;23.360;2023-01-23T01:07:33;94876.25;;;10.31;86.96
6389;BME280;3227;42.654;23.360;2023-01-23T01:10:00;94869.41;;;10.30;87.43
6389;BME280;3227;42.654;23.360;2023-01-23T01:12:26;94875.44;;;10.35;87.62
6389;BME280;3227;42.654;23.360;2023-01-23T01:14:53;94877.19;;;10.44;87.40
6389;BME280;3227;42.654;23.360;2023-01-23T01:17:20;94875.47;;;10.44;86.80
6389;BME280;3227;42.654;23.360;2023-01-23T01:19:47;94878.06;;;10.46;86.35
6389;BME280;3227;42.654;23.360;2023-01-23T01:22:13;94878.00;;;10.37;86.81
6389;BME280;3227;42.654;23.360;2023-01-23T01:24:42;94877.97;;;10.38;87.81
6389;BME280;3227;42.654;23.360;2023-01-23T01:27:11;94870.97;;;10.13;87.97
6389;BME280;3227;42.654;23.360;2023-01-23T01:29:38;94889.94;;;10.36;88.04
6389;BME280;3227;42.654;23.360;2023-01-23T01:32:05;94892.53;;;10.41;87.50
6389;BME280;3227;42.654;23.360;2023-01-23T01:34:31;94899.38;;;10.42;87.78
6389;BME280;3227;42.654;23.360;2023-01-23T01:36:58;94905.38;;;10.44;87.57
6389;BME280;3227;42.654;23.360;2023-01-23T01:39:26;94907.94;;;10.48;86.88
6389;BME280;3227;42.654;23.360;2023-01-23T01:41:54;94899.41;;;10.45;86.88
6389;BME280;3227;42.654;23.360;2023-01-23T01:44:23;94906.19;;;10.41;87.88
6389;BME280;3227;42.654;23.360;2023-01-23T01:46:50;94898.44;;;10.29;87.56
6389;BME280;3227;42.654;23.360;2023-01-23T01:49:20;94888.16;;;10.26;88.65
6389;BME280;3227;42.654;23.360;2023-01-23T01:51:51;94905.28;;;10.33;88.79
6389;BME280;3227;42.654;23.360;2023-01-23T01:54:24;94901.84;;;10.31;89.59
6389;BME280;3227;42.654;23.360;2023-01-23T01:57:04;94876.06;;;10.08;90.21
6389;BME280;3227;42.654;23.360;2023-01-23T01:59:40;94904.34;;;10.19;90.58
6389;BME280;3227;42.654;23.360;2023-01-23T02:02:10;94875.88;;;9.85;90.72
6389;BME280;3227;42.654;23.360;2023-01-23T02:04:46;94917.03;;;10.10;91.47
6389;BME280;3227;42.654;23.360;2023-01-23T02:07:20;94922.19;;;10.11;91.61
6389;BME280;3227;42.654;23.360;2023-01-23T02:09:48;94920.47;;;10.13;91.92
6389;BME280;3227;42.654;23.360;2023-01-23T02:12:17;94917.16;;;10.19;91.87
6389;BME280;3227;42.654;23.360;2023-01-23T02:14:44;94903.44;;;10.17;91.52
6389;BME280;3227;42.654;23.360;2023-01-23T02:17:11;94918.84;;;10.18;91.88
6389;BME280;3227;42.654;23.360;2023-01-23T02:19:46;94942.81;;;10.26;91.92
6389;BME280;3227;42.654;23.360;2023-01-23T02:22:25;94861.34;;;9.81;91.89
6389;BME280;3227;42.654;23.360;2023-01-23T02:25:01;94921.31;;;10.14;92.10
6389;BME280;3227;42.654;23.360;2023-01-23T02:27:30;94937.50;;;10.07;92.66
6389;BME280;3227;42.654;23.360;2023-01-23T02:29:57;94915.22;;;9.97;92.83
6389;BME280;3227;42.654;23.360;2023-01-23T02:32:24;94911.81;;;9.96;92.89
6389;BME280;3227;42.654;23.360;2023-01-23T02:34:54;94913.44;;;9.89;94.07
6389;BME280;3227;42.654;23.360;2023-01-23T02:37:25;94920.09;;;9.69;95.15
6389;BME280;3227;42.654;23.360;2023-01-23T02:39:56;94918.38;;;9.68;95.14
6389;BME280;3227;42.654;23.360;2023-01-23T02:42:24;94909.78;;;9.60;95.35
6389;BME280;3227;42.654;23.360;2023-01-23T02:44:52;94916.72;;;9.73;95.25
6389;BME280;3227;42.654;23.360;2023-01-23T02:47:21;94896.09;;;9.58;94.66
6389;BME280;3227;42.654;23.360;2023-01-23T02:49:47;94895.16;;;9.47;95.13
6389;BME280;3227;42.654;23.360;2023-01-23T02:52:14;94936.25;;;9.62;94.40
6389;BME280;3227;42.654;23.360;2023-01-23T02:54:41;94917.34;;;9.49;95.42
6389;BME280;3227;42.654;23.360;2023-01-23T02:57:08;94908.97;;;9.63;95.29
6389;BME280;3227;42.654;23.360;2023-01-23T02:59:35;94920.84;;;9.58;95.09
6389;BME280;3227;42.654;23.360;2023-01-23T03:02:21;94919.88;;;9.45;95.34
6389;BME280;3227;42.654;23.360;2023-01-23T03:04:47;94916.47;;;9.46;96.25
6389;BME280;3227;42.654;23.360;2023-01-23T03:07:14;94909.53;;;9.36;96.55
6389;BME280;3227;42.654;23.360;2023-01-23T03:09:41;94939.41;;;9.40;95.71
6389;BME280;3227;42.654;23.360;2023-01-23T03:12:10;94906.94;;;9.30;96.37
6389;BME280;3227;42.654;23.360;2023-01-23T03:14:37;94911.25;;;9.37;96.05
6389;BME280;3227;42.654;23.360;2023-01-23T03:17:04;94916.47;;;9.46;95.67
6389;BME280;3227;42.654;23.360;2023-01-23T03:19:32;94890.75;;;9.34;95.17
6389;BME280;3227;42.654;23.360;2023-01-23T03:21:59;94909.66;;;9.48;94.78
6389;BME280;3227;42.654;23.360;2023-01-23T03:24:25;94922.53;;;9.54;94.38
6389;BME280;3227;42.654;23.360;2023-01-23T03:26:52;94916.56;;;9.55;94.33
6389;BME280;3227;42.654;23.360;2023-01-23T03:29:21;94908.06;;;9.59;94.20
6389;BME280;3227;42.654;23.360;2023-01-23T03:32:07;94903.78;;;9.55;94.01
6389;BME280;3227;42.654;23.360;2023-01-23T03:34:35;94880.66;;;9.49;93.91
6389;BME280;3227;42.654;23.360;2023-01-23T03:37:03;94903.06;;;9.71;93.21
6389;BME280;3227;42.654;23.360;2023-01-23T03:39:29;94904.03;;;9.84;92.67
6389;BME280;3227;42.654;23.360;2023-01-23T03:42:13;94900.59;;;9.83;92.72
6389;BME280;3227;42.654;23.360;2023-01-23T03:44:40;94911.69;;;9.79;92.65
6389;BME280;3227;42.654;23.360;2023-01-23T03:47:07;94921.84;;;9.73;93.52
6389;BME280;3227;42.654;23.360;2023-01-23T03:49:35;94916.66;;;9.67;93.70
6389;BME280;3227;42.654;23.360;2023-01-23T03:52:02;94888.41;;;9.53;93.71
6389;BME280;3227;42.654;23.360;2023-01-23T03:54:29;94912.34;;;9.60;93.27
6389;BME280;3227;42.654;23.360;2023-01-23T03:56:56;94911.34;;;9.44;94.51
6389;BME280;3227;42.654;23.360;2023-01-23T03:59:23;94895.06;;;9.38;94.67
6389;BME280;3227;42.654;23.360;2023-01-23T04:01:50;94912.22;;;9.49;93.87
6389;BME280;3227;42.654;23.360;2023-01-23T04:04:17;94930.09;;;9.48;94.37
6389;BME280;3227;42.654;23.360;2023-01-23T04:06:45;94936.91;;;9.44;94.99
6389;BME280;3227;42.654;23.360;2023-01-23T04:09:12;94929.88;;;9.27;95.32
6389;BME280;3227;42.654;23.360;2023-01-23T04:11:39;94910.78;;;8.96;97.13
6389;BME280;3227;42.654;23.360;2023-01-23T04:14:05;94922.84;;;9.07;97.45
6389;BME280;3227;42.654;23.360;2023-01-23T04:16:32;94929.78;;;9.18;96.43
6389;BME280;3227;42.654;23.360;2023-01-23T04:18:59;94939.94;;;9.11;95.94
6389;BME280;3227;42.654;23.360;2023-01-23T04:21:26;94922.88;;;9.10;96.73
6389;BME280;3227;42.654;23.360;2023-01-23T04:23:54;94927.34;;;9.28;95.14
6389;BME280;3227;42.654;23.360;2023-01-23T04:26:21;94929.13;;;9.35;94.86
6389;BME280;3227;42.654;23.360;2023-01-23T04:28:47;94930.88;;;9.41;94.23
6389;BME280;3227;42.654;23.360;2023-01-23T04:31:14;94923.22;;;9.41;93.61
6389;BME280;3227;42.654;23.360;2023-01-23T04:33:41;94954.00;;;9.50;92.94
6389;BME280;3227;42.654;23.360;2023-01-23T04:36:09;94950.44;;;9.36;93.18
6389;BME280;3227;42.654;23.360;2023-01-23T04:38:36;94955.47;;;9.27;93.56
6389;BME280;3227;42.654;23.360;2023-01-23T04:41:05;94877.47;;;8.90;93.31
6389;BME280;3227;42.654;23.360;2023-01-23T04:43:31;94946.88;;;9.20;93.50
6389;BME280;3227;42.654;23.360;2023-01-23T04:46:00;94956.25;;;9.21;93.70
6389;BME280;3227;42.654;23.360;2023-01-23T04:48:26;94993.69;;;9.16;94.21
6389;BME280;3227;42.654;23.360;2023-01-23T04:50:53;94966.28;;;9.06;94.74
6389;BME280;3227;42.654;23.360;2023-01-23T04:53:20;94956.97;;;9.09;95.46
6389;BME280;3227;42.654;23.360;2023-01-23T04:55:47;94895.19;;;8.76;95.64
6389;BME280;3227;42.654;23.360;2023-01-23T04:58:17;94902.72;;;8.65;95.63
6389;BME280;3227;42.654;23.360;2023-01-23T05:00:44;94941.47;;;8.96;97.13
6389;BME280;3227;42.654;23.360;2023-01-23T05:03:11;94942.31;;;8.98;96.81
6389;BME280;3227;42.654;23.360;2023-01-23T05:05:38;94946.72;;;9.09;96.11
6389;BME280;3227;42.654;23.360;2023-01-23T05:08:05;94957.66;;;8.98;96.47
6389;BME280;3227;42.654;23.360;2023-01-23T05:10:31;94956.88;;;9.03;97.11
6389;BME280;3227;42.654;23.360;2023-01-23T05:12:58;94956.16;;;9.12;96.27
6389;BME280;3227;42.654;23.360;2023-01-23T05:15:26;94938.03;;;8.94;96.58
6389;BME280;3227;42.654;23.360;2023-01-23T05:17:53;94951.75;;;9.02;96.80
6389;BME280;3227;42.654;23.360;2023-01-23T05:20:20;94959.38;;;8.97;96.77
6389;BME280;3227;42.654;23.360;2023-01-23T05:22:48;94926.81;;;8.81;96.82
6389;BME280;3227;42.654;23.360;2023-01-23T05:25:19;94952.66;;;9.05;96.84
6389;BME280;3227;42.654;23.360;2023-01-23T05:27:52;94955.38;;;9.19;95.95
6389;BME280;3227;42.654;23.360;2023-01-23T05:30:21;94964.69;;;9.14;94.73
6389;BME280;3227;42.654;23.360;2023-01-23T05:32:49;94962.88;;;9.04;95.43
6389;BME280;3227;42.654;23.360;2023-01-23T05:35:16;94929.44;;;8.87;95.03
6389;BME280;3227;42.654;23.360;2023-01-23T05:38:03;94973.91;;;9.01;95.11
6389;BME280;3227;42.654;23.360;2023-01-23T05:40:30;94988.31;;;8.98;95.11
6389;BME280;3227;42.654;23.360;2023-01-23T05:42:57;94918.84;;;8.60;95.02
6389;BME280;3227;42.654;23.360;2023-01-23T05:45:24;94980.88;;;9.14;94.54
6389;BME280;3227;42.654;23.360;2023-01-23T05:47:57;94980.84;;;9.11;93.77
6389;BME280;3227;42.654;23.360;2023-01-23T05:50:24;94998.84;;;9.19;93.05
6389;BME280;3227;42.654;23.360;2023-01-23T05:52:51;94984.28;;;9.15;92.34
6389;BME280;3227;42.654;23.360;2023-01-23T05:55:18;95004.00;;;9.22;91.63
6389;BME280;3227;42.654;23.360;2023-01-23T05:57:45;94998.75;;;9.11;91.49
6389;BME280;3227;42.654;23.360;2023-01-23T06:00:13;94996.19;;;9.14;91.94
6389;BME280;3227;42.654;23.360;2023-01-23T06:02:40;95013.25;;;9.15;92.02
6389;BME280;3227;42.654;23.360;2023-01-23T06:05:08;95011.59;;;9.18;91.54
6389;BME280;3227;42.654;23.360;2023-01-23T06:07:35;95009.19;;;9.31;91.23
6389;BME280;3227;42.654;23.360;2023-01-23T06:10:03;95016.06;;;9.34;90.61
6389;BME280;3227;42.654;23.360;2023-01-23T06:12:30;95030.44;;;9.26;90.05
6389;BME280;3227;42.654;23.360;2023-01-23T06:14:56;95015.94;;;9.25;89.81
6389;BME280;3227;42.654;23.360;2023-01-23T06:17:23;95021.78;;;9.16;90.26
6389;BME280;3227;42.654;23.360;2023-01-23T06:19:50;95044.13;;;9.28;89.84
6389;BME280;3227;42.654;23.360;2023-01-23T06:22:18;95013.13;;;9.03;90.20
6389;BME280;3227;42.654;23.360;2023-01-23T06:24:45;95021.06;;;9.25;89.60
6389;BME280;3227;42.654;23.360;2023-01-23T06:27:12;95038.94;;;9.22;90.59
6389;BME280;3227;42.654;23.360;2023-01-23T06:29:39;95038.84;;;9.15;90.86
6389;BME280;3227;42.654;23.360;2023-01-23T06:32:06;95039.78;;;9.24;91.16
6389;BME280;3227;42.654;23.360;2023-01-23T06:34:32;95056.63;;;9.08;91.70
6389;BME280;3227;42.654;23.360;2023-01-23T06:36:59;95052.47;;;9.13;92.75
6389;BME280;3227;42.654;23.360;2023-01-23T06:39:27;95059.19;;;9.08;92.61
6389;BME280;3227;42.654;23.360;2023-01-23T06:41:54;95045.50;;;9.03;93.80
6389;BME280;3227;42.654;23.360;2023-01-23T06:44:21;95070.09;;;8.95;94.59
6389;BME280;3227;42.654;23.360;2023-01-23T06:46:49;95061.69;;;9.03;94.65
6389;BME280;3227;42.654;23.360;2023-01-23T06:49:17;95053.84;;;8.93;95.23
6389;BME280;3227;42.654;23.360;2023-01-23T06:51:44;95062.94;;;8.74;96.00
6389;BME280;3227;42.654;23.360;2023-01-23T06:54:11;95071.50;;;8.76;97.63
6389;BME280;3227;42.654;23.360;2023-01-23T06:56:39;95056.31;;;8.85;96.88
6389;BME280;3227;42.654;23.360;2023-01-23T06:59:06;95069.97;;;8.87;96.75
6389;BME280;3227;42.654;23.360;2023-01-23T07:01:33;95079.75;;;8.60;98.05
6389;BME280;3227;42.654;23.360;2023-01-23T07:03:59;95104.31;;;8.52;98.32
6389;BME280;3227;42.654;23.360;2023-01-23T07:06:26;95133.03;;;8.38;99.11
6389;BME280;3227;42.654;23.360;2023-01-23T07:08:53;95107.59;;;8.45;99.38
6389;BME280;3227;42.654;23.360;2023-01-23T07:11:20;95092.41;;;8.52;99.57
6389;BME280;3227;42.654;23.360;2023-01-23T07:13:48;95081.25;;;8.49;98.95
6389;BME280;3227;42.654;23.360;2023-01-23T07:16:15;95082.84;;;8.39;99.35
6389;BME280;3227;42.654;23.360;2023-01-23T07:18:41;95088.63;;;8.32;100.00
6389;BME280;3227;42.654;23.360;2023-01-23T07:21:08;95103.13;;;8.31;99.82
6389;BME280;3227;42.654;23.360;2023-01-23T07:23:35;95098.84;;;8.32;99.57
6389;BME280;3227;42.654;23.360;2023-01-23T07:26:04;95058.97;;;8.37;99.31
6389;BME280;3227;42.654;23.360;2023-01-23T07:28:34;95104.22;;;8.46;99.84
6389;BME280;3227;42.654;23.360;2023-01-23T07:31:02;95062.66;;;8.06;100.00
6389;BME280;3227;42.654;23.360;2023-01-23T07:33:29;95104.06;;;8.36;100.00
6389;BME280;3227;42.654;23.360;2023-01-23T07:35:55;95101.34;;;8.29;100.00
6389;BME280;3227;42.654;23.360;2023-01-23T07:38:22;95097.97;;;8.30;100.00
6389;BME280;3227;42.654;23.360;2023-01-23T07:40:50;95124.88;;;8.13;100.00
6389;BME280;3227;42.654;23.360;2023-01-23T07:43:17;95110.41;;;8.13;100.00
6389;BME280;3227;42.654;23.360;2023-01-23T07:45:44;95117.22;;;8.13;100.00
6389;BME280;3227;42.654;23.360;2023-01-23T07:48:12;95122.47;;;8.20;100.00
6389;BME280;3227;42.654;23.360;2023-01-23T07:50:39;95130.28;;;8.29;100.00
6389;BME280;3227;42.654;23.360;2023-01-23T07:53:06;95117.53;;;8.29;100.00
6389;BME280;3227;42.654;23.360;2023-01-23T07:55:33;95134.31;;;8.18;100.00
6389;BME280;3227;42.654;23.360;2023-01-23T07:58:00;95120.56;;;8.10;100.00
6389;BME280;3227;42.654;23.360;2023-01-23T08:00:27;95086.72;;;7.75;100.00
6389;BME280;3227;42.654;23.360;2023-01-23T08:02:54;95122.25;;;8.10;100.00
6389;BME280;3227;42.654;23.360;2023-01-23T08:05:22;95123.13;;;8.10;100.00
6389;BME280;3227;42.654;23.360;2023-01-23T08:07:49;95132.66;;;8.20;100.00
6389;BME280;3227;42.654;23.360;2023-01-23T08:10:16;95050.13;;;7.75;100.00
6389;BME280;3227;42.654;23.360;2023-01-23T08:12:43;95130.00;;;8.14;99.61
6389;BME280;3227;42.654;23.360;2023-01-23T08:15:11;95162.38;;;8.15;99.32
6389;BME280;3227;42.654;23.360;2023-01-23T08:17:37;95096.94;;;7.77;99.05
6389;BME280;3227;42.654;23.360;2023-01-23T08:20:05;95145.19;;;8.07;99.23
6389;BME280;3227;42.654;23.360;2023-01-23T08:22:33;95156.13;;;8.01;98.81
6389;BME280;3227;42.654;23.360;2023-01-23T08:25:01;95157.00;;;8.03;98.40
6389;BME280;3227;42.654;23.360;2023-01-23T08:27:28;95140.28;;;7.75;97.31
6389;BME280;3227;42.654;23.360;2023-01-23T08:29:55;95154.16;;;7.88;97.47
6389;BME280;3227;42.654;23.360;2023-01-23T08:32:22;95165.75;;;8.14;97.19
6389;BME280;3227;42.654;23.360;2023-01-23T08:34:49;95170.28;;;8.29;95.29
6389;BME280;3227;42.654;23.360;2023-01-23T08:37:16;95169.50;;;8.31;93.85
6389;BME280;3227;42.654;23.360;2023-01-23T08:39:44;95165.94;;;8.25;94.19
6389;BME280;3227;42.654;23.360;2023-01-23T08:42:11;95169.63;;;8.37;93.65
6389;BME280;3227;42.654;23.360;2023-01-23T08:44:38;95125.25;;;8.32;93.52
6389;BME280;3227;42.654;23.360;2023-01-23T08:47:05;95119.28;;;8.32;93.33
6389;BME280;3227;42.654;23.360;2023-01-23T08:49:32;95189.81;;;8.72;91.76
6389;BME280;3227;42.654;23.360;2023-01-23T08:51:59;95162.66;;;8.77;90.07
6389;BME280;3227;42.654;23.360;2023-01-23T08:54:26;95185.06;;;8.93;90.37
6389;BME280;3227;42.654;23.360;2023-01-23T08:56:54;95139.53;;;8.69;89.20
6389;BME280;3227;42.654;23.360;2023-01-23T08:59:21;95174.88;;;8.95;89.54
6389;BME280;3227;42.654;23.360;2023-01-23T09:01:47;95174.06;;;8.97;88.32
6389;BME280;3227;42.654;23.360;2023-01-23T09:04:15;95171.53;;;9.00;88.51
6389;BME280;3227;42.654;23.360;2023-01-23T09:06:42;95176.66;;;9.00;87.85
6389;BME280;3227;42.654;23.360;2023-01-23T09:09:09;95173.28;;;9.03;87.96
6389;BME280;3227;42.654;23.360;2023-01-23T09:11:35;95170.88;;;9.12;87.60
6389;BME280;3227;42.654;23.360;2023-01-23T09:14:04;95175.22;;;9.18;87.61
6389;BME280;3227;42.654;23.360;2023-01-23T09:16:30;95182.06;;;9.19;87.39
6389;BME280;3227;42.654;23.360;2023-01-23T09:18:57;95170.31;;;9.30;87.14
6389;BME280;3227;42.654;23.360;2023-01-23T09:21:24;95184.06;;;9.38;86.14
6389;BME280;3227;42.654;23.360;2023-01-23T09:23:51;95196.84;;;9.39;85.13
6389;BME280;3227;42.654;23.360;2023-01-23T09:26:17;95209.16;;;9.07;85.91
6389;BME280;3227;42.654;23.360;2023-01-23T09:28:44;95164.97;;;8.63;87.03
6389;BME280;3227;42.654;23.360;2023-01-23T09:31:13;95093.47;;;8.18;88.07
6389;BME280;3227;42.654;23.360;2023-01-23T09:33:40;95177.34;;;8.90;87.96
6389;BME280;3227;42.654;23.360;2023-01-23T09:36:08;95188.25;;;8.80;87.97
6389;BME280;3227;42.654;23.360;2023-01-23T09:38:35;95166.91;;;8.76;88.09
6389;BME280;3227;42.654;23.360;2023-01-23T09:41:09;95174.59;;;8.78;88.69
6389;BME280;3227;42.654;23.360;2023-01-23T09:43:41;95179.63;;;8.75;89.92
6389;BME280;3227;42.654;23.360;2023-01-23T09:46:16;95176.09;;;8.67;89.55
6389;BME280;3227;42.654;23.360;2023-01-23T09:48:46;95167.75;;;8.77;90.18
6389;BME280;3227;42.654;23.360;2023-01-23T09:51:19;95179.47;;;8.66;90.16
6389;BME280;3227;42.654;23.360;2023-01-23T09:53:47;95173.44;;;8.61;90.93
6389;BME280;3227;42.654;23.360;2023-01-23T09:56:27;95150.22;;;8.49;91.54
6389;BME280;3227;42.654;23.360;2023-01-23T09:58:59;95143.28;;;8.42;92.20
6389;BME280;3227;42.654;23.360;2023-01-23T10:01:30;95131.91;;;8.26;92.82
6389;BME280;3227;42.654;23.360;2023-01-23T10:03:58;95151.94;;;8.48;93.08
6389;BME280;3227;42.654;23.360;2023-01-23T10:06:28;95159.41;;;8.37;94.23
6389;BME280;3227;42.654;23.360;2023-01-23T10:09:19;95161.69;;;8.25;94.83
6389;BME280;3227;42.654;23.360;2023-01-23T10:11:56;95155.06;;;8.33;95.87
6389;BME280;3227;42.654;23.360;2023-01-23T10:14:41;95153.34;;;8.32;96.19
6389;BME280;3227;42.654;23.360;2023-01-23T10:17:23;95158.56;;;8.38;95.35
6389;BME280;3227;42.654;23.360;2023-01-23T10:20:09;95142.59;;;8.05;96.18
6389;BME280;3227;42.654;23.360;2023-01-23T10:22:44;95042.88;;;7.49;96.94
6389;BME280;3227;42.654;23.360;2023-01-23T10:25:15;95171.13;;;8.29;96.58
6389;BME280;3227;42.654;23.360;2023-01-23T10:27:45;95157.25;;;8.15;96.86
6389;BME280;3227;42.654;23.360;2023-01-23T10:30:19;95176.72;;;8.10;97.95
6389;BME280;3227;42.654;23.360;2023-01-23T10:32:50;95168.22;;;8.11;97.91
6389;BME280;3227;42.654;23.360;2023-01-23T10:35:19;95160.84;;;8.26;98.23
6389;BME280;3227;42.654;23.360;2023-01-23T10:38:13;95160.22;;;8.36;97.46
6389;BME280;3227;42.654;23.360;2023-01-23T10:40:46;95143.97;;;8.31;97.82
6389;BME280;3227;42.654;23.360;2023-01-23T10:43:30;95156.94;;;8.44;96.57
6389;BME280;3227;42.654;23.360;2023-01-23T10:45:57;95161.97;;;8.37;97.11
6389;BME280;3227;42.654;23.360;2023-01-23T10:48:38;95143.78;;;8.24;97.30
6389;BME280;3227;42.654;23.360;2023-01-23T10:54:10;95142.63;;;8.08;98.12
6389;BME280;3227;42.654;23.360;2023-01-23T10:56:45;95154.63;;;8.12;99.02
6389;BME280;3227;42.654;23.360;2023-01-23T10:59:19;95155.44;;;8.10;100.00
6389;BME280;3227;42.654;23.360;2023-01-23T11:01:55;95143.34;;;8.01;100.00
6389;BME280;3227;42.654;23.360;2023-01-23T11:04:27;95152.91;;;8.11;100.00
6389;BME280;3227;42.654;23.360;2023-01-23T11:07:05;95134.13;;;8.08;100.00
6389;BME280;3227;42.654;23.360;2023-01-23T11:09:44;95164.34;;;8.30;100.00
6389;BME280;3227;42.654;23.360;2023-01-23T11:12:15;95154.22;;;8.34;99.48
6389;BME280;3227;42.654;23.360;2023-01-23T11:14:43;95149.84;;;8.29;99.01
6389;BME280;3227;42.654;23.360;2023-01-23T11:17:18;95151.38;;;8.19;99.41
6389;BME280;3227;42.654;23.360;2023-01-23T11:19:49;95158.25;;;8.23;99.03
6389;BME280;3227;42.654;23.360;2023-01-23T11:22:29;95162.69;;;8.32;98.94
6389;BME280;3227;42.654;23.360;2023-01-23T11:24:58;95114.56;;;8.08;99.43
6389;BME280;3227;42.654;23.360;2023-01-23T11:27:26;95063.13;;;7.87;99.29
6389;BME280;3227;42.654;23.360;2023-01-23T11:32:57;95155.22;;;8.43;98.49
6389;BME280;3227;42.654;23.360;2023-01-23T11:35:36;95154.41;;;8.44;98.28
6389;BME280;3227;42.654;23.360;2023-01-23T11:38:12;95159.34;;;8.34;99.28
6389;BME280;3227;42.654;23.360;2023-01-23T11:40:40;95138.66;;;8.22;99.18
6389;BME280;3227;42.654;23.360;2023-01-23T11:43:12;95155.06;;;8.33;99.98
6389;BME280;3227;42.654;23.360;2023-01-23T11:45:48;95139.00;;;8.40;99.32
6389;BME280;3227;42.654;23.360;2023-01-23T11:48:30;95144.38;;;8.54;100.00
6389;BME280;3227;42.654;23.360;2023-01-23T11:51:08;95153.50;;;8.42;98.97
6389;BME280;3227;42.654;23.360;2023-01-23T11:53:43;95159.47;;;8.42;99.60
6389;BME280;3227;42.654;23.360;2023-01-23T12:02:43;95159.50;;;8.00;100.00
6389;BME280;3227;42.654;23.360;2023-01-23T12:08:18;95138.06;;;7.90;100.00
6389;BME280;3227;42.654;23.360;2023-01-23T12:10:55;95112.66;;;7.96;100.00
6389;BME280;3227;42.654;23.360;2023-01-23T12:13:41;95136.66;;;8.08;100.00
6389;BME280;3227;42.654;23.360;2023-01-23T12:16:15;95155.31;;;8.03;100.00
6389;BME280;3227;42.654;23.360;2023-01-23T12:18:53;95139.19;;;8.05;100.00
6389;BME280;3227;42.654;23.360;2023-01-23T12:21:29;95150.44;;;8.16;100.00
6389;BME280;3227;42.654;23.360;2023-01-23T12:24:10;95134.53;;;7.85;100.00
6389;BME280;3227;42.654;23.360;2023-01-23T12:26:53;95140.69;;;7.95;100.00
6389;BME280;3227;42.654;23.360;2023-01-23T12:29:42;95147.97;;;8.20;100.00
6389;BME280;3227;42.654;23.360;2023-01-23T12:32:34;95146.25;;;8.19;100.00
6389;BME280;3227;42.654;23.360;2023-01-23T12:35:16;95152.97;;;8.14;100.00
6389;BME280;3227;42.654;23.360;2023-01-23T12:38:02;95128.47;;;7.79;100.00
6389;BME280;3227;42.654;23.360;2023-01-23T12:40:36;95145.72;;;7.92;100.00
6389;BME280;3227;42.654;23.360;2023-01-23T12:43:10;95142.25;;;7.88;100.00
6389;BME280;3227;42.654;23.360;2023-01-23T12:45:42;95155.28;;;8.02;100.00
6389;BME280;3227;42.654;23.360;2023-01-23T12:48:16;95152.91;;;8.11;100.00
6389;BME280;3227;42.654;23.360;2023-01-23T12:50:47;95157.84;;;8.02;100.00
6389;BME280;3227;42.654;23.360;2023-01-23T12:53:20;95152.81;;;8.05;100.00
6389;BME280;3227;42.654;23.360;2023-01-23T12:55:58;95157.94;;;8.08;100.00
6389;BME280;3227;42.654;23.360;2023-01-23T12:58:29;95145.97;;;8.04;100.00
6389;BME280;3227;42.654;23.360;2023-01-23T13:01:05;95118.34;;;7.83;100.00
6389;BME280;3227;42.654;23.360;2023-01-23T13:07:07;95155.53;;;8.16;100.00
6389;BME280;3227;42.654;23.360;2023-01-23T13:09:44;95157.38;;;8.21;99.58
6389;BME280;3227;42.654;23.360;2023-01-23T13:12:19;95166.69;;;8.19;100.00
6389;BME280;3227;42.654;23.360;2023-01-23T13:14:47;95164.13;;;8.19;100.00
6389;BME280;3227;42.654;23.360;2023-01-23T13:17:34;95174.63;;;8.31;99.18
6389;BME280;3227;42.654;23.360;2023-01-23T13:20:22;95171.59;;;8.10;99.88
6389;BME280;3227;42.654;23.360;2023-01-23T13:23:28;95157.09;;;8.08;100.00
6389;BME280;3227;42.654;23.360;2023-01-23T13:26:24;95141.63;;;8.00;100.00
6389;BME280;3227;42.654;23.360;2023-01-23T13:29:04;95184.50;;;8.18;100.00
6389;BME280;3227;42.654;23.360;2023-01-23T13:31:42;95176.00;;;8.17;100.00
6389;BME280;3227;42.654;23.360;2023-01-23T13:34:37;95173.41;;;8.16;100.00
6389;BME280;3227;42.654;23.360;2023-01-23T13:40:21;95177.94;;;8.29;100.00
6389;BME280;3227;42.654;23.360;2023-01-23T13:42:48;95163.63;;;7.93;100.00
6389;BME280;3227;42.654;23.360;2023-01-23T13:45:34;95169.69;;;8.00;100.00
6389;BME280;3227;42.654;23.360;2023-01-23T13:51:21;95174.94;;;8.08;100.00
6389;BME280;3227;42.654;23.360;2023-01-23T13:53:50;95175.78;;;8.05;100.00
6389;BME280;3227;42.654;23.360;2023-01-23T13:56:38;95182.47;;;8.00;100.00
6389;BME280;3227;42.654;23.360;2023-01-23T13:59:10;95179.03;;;7.99;100.00